sensor_id;sensor_type;location;lat;lon;timestamp;P1;durP1;ratioP1;P2;durP2;ratioP2
17631;SDS011;8934;51.194;17.150;2023-06-04T00:01:29;3.92;;;2.40;;
17631;SDS011;8934;51.194;17.150;2023-06-04T00:04:16;3.42;;;2.10;;
17631;SDS011;8934;51.194;17.150;2023-06-04T00:07:04;5.32;;;2.60;;
17631;SDS011;8934;51.194;17.150;2023-06-04T00:09:52;5.38;;;2.35;;
17631;SDS011;8934;51.194;17.150;2023-06-04T00:12:40;4.90;;;2.17;;
17631;SDS011;8934;51.194;17.150;2023-06-04T00:15:29;5.85;;;2.47;;
17631;SDS011;8934;51.194;17.150;2023-06-04T00:18:17;7.22;;;2.65;;
17631;SDS011;8934;51.194;17.150;2023-06-04T00:21:05;3.67;;;2.28;;
17631;SDS011;8934;51.194;17.150;2023-06-04T00:23:53;4.63;;;2.20;;
17631;SDS011;8934;51.194;17.150;2023-06-04T00:26:40;4.80;;;2.58;;
17631;SDS011;8934;51.194;17.150;2023-06-04T00:29:28;3.53;;;2.25;;
17631;SDS011;8934;51.194;17.150;2023-06-04T00:32:17;4.07;;;2.55;;
17631;SDS011;8934;51.194;17.150;2023-06-04T00:35:06;5.00;;;2.53;;
17631;SDS011;8934;51.194;17.150;2023-06-04T00:37:55;4.80;;;2.97;;
17631;SDS011;8934;51.194;17.150;2023-06-04T00:40:42;5.70;;;2.83;;
17631;SDS011;8934;51.194;17.150;2023-06-04T00:43:30;6.05;;;2.63;;
17631;SDS011;8934;51.194;17.150;2023-06-04T00:46:18;3.40;;;2.15;;
17631;SDS011;8934;51.194;17.150;2023-06-04T00:49:08;4.07;;;2.63;;
17631;SDS011;8934;51.194;17.150;2023-06-04T00:51:58;3.13;;;2.42;;
17631;SDS011;8934;51.194;17.150;2023-06-04T00:54:46;5.07;;;2.10;;
17631;SDS011;8934;51.194;17.150;2023-06-04T00:57:34;4.80;;;2.17;;
17631;SDS011;8934;51.194;17.150;2023-06-04T01:00:22;4.18;;;2.63;;
17631;SDS011;8934;51.194;17.150;2023-06-04T01:03:12;5.55;;;2.40;;
17631;SDS011;8934;51.194;17.150;2023-06-04T01:06:07;5.07;;;2.30;;
17631;SDS011;8934;51.194;17.150;2023-06-04T01:08:59;4.10;;;2.50;;
17631;SDS011;8934;51.194;17.150;2023-06-04T01:11:47;4.18;;;2.55;;
17631;SDS011;8934;51.194;17.150;2023-06-04T01:14:35;3.58;;;2.50;;
17631;SDS011;8934;51.194;17.150;2023-06-04T01:17:23;4.78;;;2.28;;
17631;SDS011;8934;51.194;17.150;2023-06-04T01:20:25;4.20;;;2.65;;
17631;SDS011;8934;51.194;17.150;2023-06-04T01:23:30;4.20;;;2.70;;
17631;SDS011;8934;51.194;17.150;2023-06-04T01:26:25;3.47;;;2.17;;
17631;SDS011;8934;51.194;17.150;2023-06-04T01:29:14;3.17;;;2.50;;
17631;SDS011;8934;51.194;17.150;2023-06-04T01:32:01;7.22;;;2.90;;
17631;SDS011;8934;51.194;17.150;2023-06-04T01:34:50;4.85;;;2.38;;
17631;SDS011;8934;51.194;17.150;2023-06-04T01:37:37;4.85;;;2.33;;
17631;SDS011;8934;51.194;17.150;2023-06-04T01:40:26;3.53;;;2.35;;
17631;SDS011;8934;51.194;17.150;2023-06-04T01:43:14;4.63;;;2.42;;
17631;SDS011;8934;51.194;17.150;2023-06-04T01:46:02;4.93;;;3.22;;
17631;SDS011;8934;51.194;17.150;2023-06-04T01:48:50;5.38;;;2.53;;
17631;SDS011;8934;51.194;17.150;2023-06-04T01:51:38;6.18;;;2.97;;
17631;SDS011;8934;51.194;17.150;2023-06-04T01:54:26;5.80;;;2.83;;
17631;SDS011;8934;51.194;17.150;2023-06-04T01:57:17;5.15;;;2.67;;
17631;SDS011;8934;51.194;17.150;2023-06-04T02:00:05;6.57;;;2.90;;
17631;SDS011;8934;51.194;17.150;2023-06-04T02:02:58;6.05;;;3.15;;
17631;SDS011;8934;51.194;17.150;2023-06-04T02:05:46;4.43;;;2.30;;
17631;SDS011;8934;51.194;17.150;2023-06-04T02:08:35;7.97;;;2.95;;
17631;SDS011;8934;51.194;17.150;2023-06-04T02:11:25;3.70;;;2.63;;
17631;SDS011;8934;51.194;17.150;2023-06-04T02:14:13;3.53;;;2.50;;
17631;SDS011;8934;51.194;17.150;2023-06-04T02:17:01;4.22;;;2.95;;
17631;SDS011;8934;51.194;17.150;2023-06-04T02:19:50;4.13;;;2.55;;
17631;SDS011;8934;51.194;17.150;2023-06-04T02:22:37;5.38;;;2.90;;
17631;SDS011;8934;51.194;17.150;2023-06-04T02:25:25;4.47;;;2.60;;
17631;SDS011;8934;51.194;17.150;2023-06-04T02:28:13;5.43;;;2.47;;
17631;SDS011;8934;51.194;17.150;2023-06-04T02:31:03;5.93;;;3.10;;
17631;SDS011;8934;51.194;17.150;2023-06-04T02:33:51;5.68;;;2.80;;
17631;SDS011;8934;51.194;17.150;2023-06-04T02:36:38;3.63;;;2.35;;
17631;SDS011;8934;51.194;17.150;2023-06-04T02:39:25;4.53;;;2.65;;
17631;SDS011;8934;51.194;17.150;2023-06-04T02:42:13;4.85;;;3.03;;
17631;SDS011;8934;51.194;17.150;2023-06-04T02:45:01;4.82;;;2.85;;
17631;SDS011;8934;51.194;17.150;2023-06-04T02:47:50;4.90;;;3.00;;
17631;SDS011;8934;51.194;17.150;2023-06-04T02:50:38;4.93;;;2.70;;
17631;SDS011;8934;51.194;17.150;2023-06-04T02:53:28;4.90;;;2.78;;
17631;SDS011;8934;51.194;17.150;2023-06-04T02:56:15;4.88;;;2.90;;
17631;SDS011;8934;51.194;17.150;2023-06-04T02:59:03;4.53;;;2.85;;
17631;SDS011;8934;51.194;17.150;2023-06-04T03:01:52;8.00;;;4.03;;
17631;SDS011;8934;51.194;17.150;2023-06-04T03:04:41;6.95;;;3.63;;
17631;SDS011;8934;51.194;17.150;2023-06-04T03:07:30;11.88;;;4.68;;
17631;SDS011;8934;51.194;17.150;2023-06-04T03:10:18;11.43;;;4.55;;
17631;SDS011;8934;51.194;17.150;2023-06-04T03:13:05;7.70;;;3.40;;
17631;SDS011;8934;51.194;17.150;2023-06-04T03:15:53;6.93;;;4.20;;
17631;SDS011;8934;51.194;17.150;2023-06-04T03:18:41;6.78;;;3.72;;
17631;SDS011;8934;51.194;17.150;2023-06-04T03:21:31;6.20;;;3.67;;
17631;SDS011;8934;51.194;17.150;2023-06-04T03:24:19;6.30;;;3.03;;
17631;SDS011;8934;51.194;17.150;2023-06-04T03:27:07;4.80;;;2.90;;
17631;SDS011;8934;51.194;17.150;2023-06-04T03:29:58;4.47;;;2.80;;
17631;SDS011;8934;51.194;17.150;2023-06-04T03:32:54;4.38;;;2.70;;
17631;SDS011;8934;51.194;17.150;2023-06-04T03:35:42;5.03;;;2.80;;
17631;SDS011;8934;51.194;17.150;2023-06-04T03:38:31;5.45;;;3.03;;
17631;SDS011;8934;51.194;17.150;2023-06-04T03:41:19;5.55;;;3.47;;
17631;SDS011;8934;51.194;17.150;2023-06-04T03:44:07;4.07;;;3.05;;
17631;SDS011;8934;51.194;17.150;2023-06-04T03:46:54;5.43;;;3.00;;
17631;SDS011;8934;51.194;17.150;2023-06-04T03:49:42;6.93;;;3.55;;
17631;SDS011;8934;51.194;17.150;2023-06-04T03:52:30;3.78;;;2.88;;
17631;SDS011;8934;51.194;17.150;2023-06-04T03:55:20;4.22;;;2.70;;
17631;SDS011;8934;51.194;17.150;2023-06-04T03:58:09;6.10;;;3.13;;
17631;SDS011;8934;51.194;17.150;2023-06-04T04:01:02;5.15;;;3.38;;
17631;SDS011;8934;51.194;17.150;2023-06-04T04:03:50;6.07;;;3.00;;
17631;SDS011;8934;51.194;17.150;2023-06-04T04:06:39;5.15;;;2.90;;
17631;SDS011;8934;51.194;17.150;2023-06-04T04:09:27;5.05;;;3.00;;
17631;SDS011;8934;51.194;17.150;2023-06-04T04:12:16;5.32;;;3.20;;
17631;SDS011;8934;51.194;17.150;2023-06-04T04:15:05;4.63;;;3.10;;
17631;SDS011;8934;51.194;17.150;2023-06-04T04:17:54;5.05;;;2.88;;
17631;SDS011;8934;51.194;17.150;2023-06-04T04:20:43;6.65;;;2.90;;
17631;SDS011;8934;51.194;17.150;2023-06-04T04:23:31;5.15;;;2.70;;
17631;SDS011;8934;51.194;17.150;2023-06-04T04:26:19;7.70;;;3.20;;
17631;SDS011;8934;51.194;17.150;2023-06-04T04:29:13;4.25;;;3.10;;
17631;SDS011;8934;51.194;17.150;2023-06-04T04:32:01;6.00;;;3.28;;
17631;SDS011;8934;51.194;17.150;2023-06-04T04:34:57;4.85;;;2.70;;
17631;SDS011;8934;51.194;17.150;2023-06-04T04:37:52;5.53;;;3.20;;
17631;SDS011;8934;51.194;17.150;2023-06-04T04:40:40;6.63;;;2.92;;
17631;SDS011;8934;51.194;17.150;2023-06-04T04:43:31;6.32;;;2.78;;
17631;SDS011;8934;51.194;17.150;2023-06-04T04:46:36;6.20;;;3.38;;
17631;SDS011;8934;51.194;17.150;2023-06-04T04:49:24;5.28;;;2.80;;
17631;SDS011;8934;51.194;17.150;2023-06-04T04:52:11;4.05;;;3.05;;
17631;SDS011;8934;51.194;17.150;2023-06-04T04:55:00;4.07;;;2.53;;
17631;SDS011;8934;51.194;17.150;2023-06-04T04:57:50;6.10;;;3.45;;
17631;SDS011;8934;51.194;17.150;2023-06-04T05:00:39;5.38;;;2.55;;
17631;SDS011;8934;51.194;17.150;2023-06-04T05:03:28;4.88;;;2.85;;
17631;SDS011;8934;51.194;17.150;2023-06-04T05:06:16;7.80;;;2.92;;
17631;SDS011;8934;51.194;17.150;2023-06-04T05:09:04;6.03;;;3.13;;
17631;SDS011;8934;51.194;17.150;2023-06-04T05:11:54;6.03;;;2.67;;
17631;SDS011;8934;51.194;17.150;2023-06-04T05:14:41;4.30;;;2.70;;
17631;SDS011;8934;51.194;17.150;2023-06-04T05:17:31;4.95;;;2.85;;
17631;SDS011;8934;51.194;17.150;2023-06-04T05:20:25;7.20;;;2.33;;
17631;SDS011;8934;51.194;17.150;2023-06-04T05:23:13;4.57;;;2.83;;
17631;SDS011;8934;51.194;17.150;2023-06-04T05:26:04;4.63;;;2.30;;
17631;SDS011;8934;51.194;17.150;2023-06-04T05:28:52;4.88;;;2.15;;
17631;SDS011;8934;51.194;17.150;2023-06-04T05:31:44;3.88;;;2.50;;
17631;SDS011;8934;51.194;17.150;2023-06-04T05:34:34;7.32;;;2.50;;
17631;SDS011;8934;51.194;17.150;2023-06-04T05:37:25;4.50;;;2.70;;
17631;SDS011;8934;51.194;17.150;2023-06-04T05:40:15;4.05;;;2.25;;
17631;SDS011;8934;51.194;17.150;2023-06-04T05:43:03;3.75;;;2.25;;
17631;SDS011;8934;51.194;17.150;2023-06-04T05:45:50;4.13;;;2.45;;
17631;SDS011;8934;51.194;17.150;2023-06-04T05:48:38;4.68;;;2.60;;
17631;SDS011;8934;51.194;17.150;2023-06-04T05:51:26;3.80;;;2.78;;
17631;SDS011;8934;51.194;17.150;2023-06-04T05:54:16;4.53;;;2.80;;
17631;SDS011;8934;51.194;17.150;2023-06-04T05:57:04;4.10;;;2.25;;
17631;SDS011;8934;51.194;17.150;2023-06-04T05:59:52;4.22;;;2.53;;
17631;SDS011;8934;51.194;17.150;2023-06-04T06:02:40;3.45;;;1.85;;
17631;SDS011;8934;51.194;17.150;2023-06-04T06:05:42;3.47;;;2.10;;
17631;SDS011;8934;51.194;17.150;2023-06-04T06:08:30;7.03;;;2.67;;
17631;SDS011;8934;51.194;17.150;2023-06-04T06:11:19;3.80;;;2.28;;
17631;SDS011;8934;51.194;17.150;2023-06-04T06:14:07;4.07;;;2.05;;
17631;SDS011;8934;51.194;17.150;2023-06-04T06:16:55;3.03;;;2.00;;
17631;SDS011;8934;51.194;17.150;2023-06-04T06:19:43;3.53;;;2.05;;
17631;SDS011;8934;51.194;17.150;2023-06-04T06:22:31;3.05;;;1.90;;
17631;SDS011;8934;51.194;17.150;2023-06-04T06:25:20;4.50;;;2.30;;
17631;SDS011;8934;51.194;17.150;2023-06-04T06:31:07;5.18;;;2.00;;
17631;SDS011;8934;51.194;17.150;2023-06-04T06:33:55;5.70;;;2.17;;
17631;SDS011;8934;51.194;17.150;2023-06-04T06:36:42;3.80;;;2.00;;
17631;SDS011;8934;51.194;17.150;2023-06-04T06:39:30;4.18;;;1.85;;
17631;SDS011;8934;51.194;17.150;2023-06-04T06:42:21;4.97;;;2.08;;
17631;SDS011;8934;51.194;17.150;2023-06-04T06:45:11;3.78;;;2.10;;
17631;SDS011;8934;51.194;17.150;2023-06-04T06:47:58;4.10;;;2.15;;
17631;SDS011;8934;51.194;17.150;2023-06-04T06:50:46;4.60;;;2.42;;
17631;SDS011;8934;51.194;17.150;2023-06-04T06:53:33;3.47;;;2.05;;
17631;SDS011;8934;51.194;17.150;2023-06-04T06:56:21;3.85;;;2.13;;
17631;SDS011;8934;51.194;17.150;2023-06-04T06:59:09;6.05;;;2.10;;
17631;SDS011;8934;51.194;17.150;2023-06-04T07:01:57;4.95;;;2.08;;
17631;SDS011;8934;51.194;17.150;2023-06-04T07:04:45;5.20;;;2.05;;
17631;SDS011;8934;51.194;17.150;2023-06-04T07:07:33;3.88;;;2.10;;
17631;SDS011;8934;51.194;17.150;2023-06-04T07:10:21;4.07;;;2.28;;
17631;SDS011;8934;51.194;17.150;2023-06-04T07:13:08;5.47;;;2.10;;
17631;SDS011;8934;51.194;17.150;2023-06-04T07:15:56;3.42;;;2.00;;
17631;SDS011;8934;51.194;17.150;2023-06-04T07:18:47;3.70;;;2.28;;
17631;SDS011;8934;51.194;17.150;2023-06-04T07:21:35;4.97;;;2.70;;
17631;SDS011;8934;51.194;17.150;2023-06-04T07:24:23;2.97;;;1.80;;
17631;SDS011;8934;51.194;17.150;2023-06-04T07:27:11;4.28;;;2.00;;
17631;SDS011;8934;51.194;17.150;2023-06-04T07:29:59;5.72;;;2.03;;
17631;SDS011;8934;51.194;17.150;2023-06-04T07:32:47;3.97;;;1.73;;
17631;SDS011;8934;51.194;17.150;2023-06-04T07:35:36;2.17;;;1.55;;
17631;SDS011;8934;51.194;17.150;2023-06-04T07:38:24;2.78;;;1.83;;
17631;SDS011;8934;51.194;17.150;2023-06-04T07:41:11;3.63;;;1.85;;
17631;SDS011;8934;51.194;17.150;2023-06-04T07:43:59;3.72;;;2.40;;
17631;SDS011;8934;51.194;17.150;2023-06-04T07:46:46;8.80;;;2.38;;
17631;SDS011;8934;51.194;17.150;2023-06-04T07:49:34;2.95;;;1.73;;
17631;SDS011;8934;51.194;17.150;2023-06-04T07:52:36;5.63;;;1.83;;
17631;SDS011;8934;51.194;17.150;2023-06-04T07:55:24;3.75;;;1.70;;
17631;SDS011;8934;51.194;17.150;2023-06-04T07:58:12;4.80;;;1.50;;
17631;SDS011;8934;51.194;17.150;2023-06-04T08:01:00;2.78;;;1.42;;
17631;SDS011;8934;51.194;17.150;2023-06-04T08:03:48;1.75;;;1.50;;
17631;SDS011;8934;51.194;17.150;2023-06-04T08:06:36;2.13;;;1.55;;
17631;SDS011;8934;51.194;17.150;2023-06-04T08:09:26;5.22;;;1.90;;
17631;SDS011;8934;51.194;17.150;2023-06-04T08:12:14;3.63;;;1.83;;
17631;SDS011;8934;51.194;17.150;2023-06-04T08:15:03;2.60;;;1.63;;
17631;SDS011;8934;51.194;17.150;2023-06-04T08:17:51;5.60;;;1.92;;
17631;SDS011;8934;51.194;17.150;2023-06-04T08:20:40;3.67;;;1.63;;
17631;SDS011;8934;51.194;17.150;2023-06-04T08:23:27;3.15;;;1.40;;
17631;SDS011;8934;51.194;17.150;2023-06-04T08:26:16;3.50;;;1.35;;
17631;SDS011;8934;51.194;17.150;2023-06-04T08:29:05;2.60;;;1.20;;
17631;SDS011;8934;51.194;17.150;2023-06-04T08:31:52;4.97;;;1.48;;
17631;SDS011;8934;51.194;17.150;2023-06-04T08:34:40;3.92;;;1.52;;
17631;SDS011;8934;51.194;17.150;2023-06-04T08:37:27;3.28;;;1.23;;
17631;SDS011;8934;51.194;17.150;2023-06-04T08:40:15;2.00;;;1.13;;
17631;SDS011;8934;51.194;17.150;2023-06-04T08:43:04;2.10;;;0.90;;
17631;SDS011;8934;51.194;17.150;2023-06-04T08:45:52;2.47;;;1.13;;
17631;SDS011;8934;51.194;17.150;2023-06-04T08:48:47;3.15;;;1.15;;
17631;SDS011;8934;51.194;17.150;2023-06-04T08:51:37;4.63;;;1.30;;
17631;SDS011;8934;51.194;17.150;2023-06-04T08:54:25;1.60;;;1.05;;
17631;SDS011;8934;51.194;17.150;2023-06-04T08:57:14;2.33;;;1.10;;
17631;SDS011;8934;51.194;17.150;2023-06-04T09:00:05;2.55;;;1.08;;
17631;SDS011;8934;51.194;17.150;2023-06-04T09:02:54;2.95;;;1.10;;
17631;SDS011;8934;51.194;17.150;2023-06-04T09:05:42;3.17;;;1.27;;
17631;SDS011;8934;51.194;17.150;2023-06-04T09:08:35;1.92;;;1.23;;
17631;SDS011;8934;51.194;17.150;2023-06-04T09:11:27;3.60;;;1.40;;
17631;SDS011;8934;51.194;17.150;2023-06-04T09:14:20;2.45;;;1.25;;
17631;SDS011;8934;51.194;17.150;2023-06-04T09:17:09;3.03;;;1.35;;
17631;SDS011;8934;51.194;17.150;2023-06-04T09:19:57;1.55;;;1.08;;
17631;SDS011;8934;51.194;17.150;2023-06-04T09:22:45;1.23;;;1.00;;
17631;SDS011;8934;51.194;17.150;2023-06-04T09:25:32;2.40;;;1.20;;
17631;SDS011;8934;51.194;17.150;2023-06-04T09:28:19;2.08;;;0.80;;
17631;SDS011;8934;51.194;17.150;2023-06-04T09:31:08;3.05;;;1.27;;
17631;SDS011;8934;51.194;17.150;2023-06-04T09:33:57;1.52;;;1.08;;
17631;SDS011;8934;51.194;17.150;2023-06-04T09:36:45;2.75;;;0.85;;
17631;SDS011;8934;51.194;17.150;2023-06-04T09:39:33;2.50;;;0.88;;
17631;SDS011;8934;51.194;17.150;2023-06-04T09:42:20;3.42;;;1.20;;
17631;SDS011;8934;51.194;17.150;2023-06-04T09:45:09;2.08;;;1.10;;
17631;SDS011;8934;51.194;17.150;2023-06-04T09:47:58;1.33;;;1.05;;
17631;SDS011;8934;51.194;17.150;2023-06-04T09:50:48;2.38;;;1.05;;
17631;SDS011;8934;51.194;17.150;2023-06-04T09:53:36;2.88;;;1.08;;
17631;SDS011;8934;51.194;17.150;2023-06-04T09:56:24;1.25;;;1.02;;
17631;SDS011;8934;51.194;17.150;2023-06-04T09:59:12;1.30;;;0.85;;
17631;SDS011;8934;51.194;17.150;2023-06-04T10:02:00;1.40;;;0.88;;
17631;SDS011;8934;51.194;17.150;2023-06-04T10:04:49;1.95;;;1.05;;
17631;SDS011;8934;51.194;17.150;2023-06-04T10:07:42;1.67;;;1.15;;
17631;SDS011;8934;51.194;17.150;2023-06-04T10:10:31;1.85;;;1.05;;
17631;SDS011;8934;51.194;17.150;2023-06-04T10:13:23;1.65;;;1.10;;
17631;SDS011;8934;51.194;17.150;2023-06-04T10:16:13;0.90;;;0.77;;
17631;SDS011;8934;51.194;17.150;2023-06-04T10:19:18;1.63;;;0.95;;
17631;SDS011;8934;51.194;17.150;2023-06-04T10:22:06;3.08;;;1.02;;
17631;SDS011;8934;51.194;17.150;2023-06-04T10:24:57;2.53;;;0.90;;
17631;SDS011;8934;51.194;17.150;2023-06-04T10:27:45;1.40;;;0.77;;
17631;SDS011;8934;51.194;17.150;2023-06-04T10:30:33;1.40;;;0.80;;
17631;SDS011;8934;51.194;17.150;2023-06-04T10:33:20;1.67;;;0.98;;
17631;SDS011;8934;51.194;17.150;2023-06-04T10:36:17;1.35;;;0.93;;
17631;SDS011;8934;51.194;17.150;2023-06-04T10:39:05;3.70;;;1.10;;
17631;SDS011;8934;51.194;17.150;2023-06-04T10:42:01;1.88;;;0.98;;
17631;SDS011;8934;51.194;17.150;2023-06-04T10:44:50;3.22;;;1.00;;
17631;SDS011;8934;51.194;17.150;2023-06-04T10:47:42;4.70;;;1.40;;
17631;SDS011;8934;51.194;17.150;2023-06-04T10:50:29;2.22;;;0.90;;
17631;SDS011;8934;51.194;17.150;2023-06-04T10:53:18;1.33;;;1.00;;
17631;SDS011;8934;51.194;17.150;2023-06-04T10:56:06;1.85;;;0.77;;
17631;SDS011;8934;51.194;17.150;2023-06-04T10:58:55;3.25;;;1.20;;
17631;SDS011;8934;51.194;17.150;2023-06-04T11:01:42;1.08;;;0.90;;
17631;SDS011;8934;51.194;17.150;2023-06-04T11:04:30;4.97;;;1.10;;
17631;SDS011;8934;51.194;17.150;2023-06-04T11:07:19;2.45;;;0.98;;
17631;SDS011;8934;51.194;17.150;2023-06-04T11:10:07;3.42;;;0.90;;
17631;SDS011;8934;51.194;17.150;2023-06-04T11:12:56;1.52;;;1.00;;
17631;SDS011;8934;51.194;17.150;2023-06-04T11:15:45;4.10;;;1.00;;
17631;SDS011;8934;51.194;17.150;2023-06-04T11:18:34;2.28;;;0.90;;
17631;SDS011;8934;51.194;17.150;2023-06-04T11:21:22;1.85;;;0.90;;
17631;SDS011;8934;51.194;17.150;2023-06-04T11:24:12;2.65;;;1.30;;
17631;SDS011;8934;51.194;17.150;2023-06-04T11:27:00;1.75;;;1.02;;
17631;SDS011;8934;51.194;17.150;2023-06-04T11:30:02;4.30;;;1.30;;
17631;SDS011;8934;51.194;17.150;2023-06-04T11:33:00;1.30;;;1.00;;
17631;SDS011;8934;51.194;17.150;2023-06-04T11:35:49;1.88;;;0.95;;
17631;SDS011;8934;51.194;17.150;2023-06-04T11:38:38;5.63;;;1.38;;
17631;SDS011;8934;51.194;17.150;2023-06-04T11:41:26;1.73;;;0.90;;
17631;SDS011;8934;51.194;17.150;2023-06-04T11:44:17;2.15;;;1.02;;
17631;SDS011;8934;51.194;17.150;2023-06-04T11:47:06;1.75;;;0.82;;
17631;SDS011;8934;51.194;17.150;2023-06-04T11:49:57;2.22;;;1.15;;
17631;SDS011;8934;51.194;17.150;2023-06-04T11:52:46;2.83;;;1.20;;
17631;SDS011;8934;51.194;17.150;2023-06-04T11:55:35;1.30;;;0.95;;
17631;SDS011;8934;51.194;17.150;2023-06-04T11:58:24;1.83;;;1.08;;
17631;SDS011;8934;51.194;17.150;2023-06-04T12:01:12;2.35;;;0.98;;
17631;SDS011;8934;51.194;17.150;2023-06-04T12:04:00;3.17;;;0.90;;
17631;SDS011;8934;51.194;17.150;2023-06-04T12:07:00;1.48;;;0.80;;
17631;SDS011;8934;51.194;17.150;2023-06-04T12:09:50;3.28;;;1.17;;
17631;SDS011;8934;51.194;17.150;2023-06-04T12:12:38;2.55;;;1.00;;
17631;SDS011;8934;51.194;17.150;2023-06-04T12:15:27;3.90;;;1.20;;
17631;SDS011;8934;51.194;17.150;2023-06-04T12:18:22;1.20;;;0.90;;
17631;SDS011;8934;51.194;17.150;2023-06-04T12:21:16;1.15;;;0.80;;
17631;SDS011;8934;51.194;17.150;2023-06-04T12:24:06;2.40;;;1.30;;
17631;SDS011;8934;51.194;17.150;2023-06-04T12:27:02;1.20;;;0.93;;
17631;SDS011;8934;51.194;17.150;2023-06-04T12:29:55;2.42;;;1.40;;
17631;SDS011;8934;51.194;17.150;2023-06-04T12:32:46;1.00;;;0.90;;
17631;SDS011;8934;51.194;17.150;2023-06-04T12:35:34;1.45;;;0.82;;
17631;SDS011;8934;51.194;17.150;2023-06-04T12:38:22;2.30;;;1.23;;
17631;SDS011;8934;51.194;17.150;2023-06-04T12:41:11;1.25;;;1.15;;
17631;SDS011;8934;51.194;17.150;2023-06-04T12:43:59;2.25;;;0.90;;
17631;SDS011;8934;51.194;17.150;2023-06-04T12:46:47;2.65;;;1.10;;
17631;SDS011;8934;51.194;17.150;2023-06-04T12:49:35;7.50;;;1.73;;
17631;SDS011;8934;51.194;17.150;2023-06-04T12:52:23;1.15;;;1.00;;
17631;SDS011;8934;51.194;17.150;2023-06-04T12:55:10;2.67;;;1.08;;
17631;SDS011;8934;51.194;17.150;2023-06-04T12:58:00;2.67;;;1.13;;
17631;SDS011;8934;51.194;17.150;2023-06-04T13:00:47;1.90;;;0.98;;
17631;SDS011;8934;51.194;17.150;2023-06-04T13:03:36;8.07;;;1.00;;
17631;SDS011;8934;51.194;17.150;2023-06-04T13:06:24;2.47;;;1.10;;
17631;SDS011;8934;51.194;17.150;2023-06-04T13:09:13;2.55;;;1.10;;
17631;SDS011;8934;51.194;17.150;2023-06-04T13:12:00;2.58;;;0.88;;
17631;SDS011;8934;51.194;17.150;2023-06-04T13:14:50;1.73;;;1.10;;
17631;SDS011;8934;51.194;17.150;2023-06-04T13:17:38;1.35;;;1.13;;
17631;SDS011;8934;51.194;17.150;2023-06-04T13:20:25;2.95;;;0.90;;
17631;SDS011;8934;51.194;17.150;2023-06-04T13:23:13;2.80;;;1.02;;
17631;SDS011;8934;51.194;17.150;2023-06-04T13:26:00;2.30;;;1.38;;
17631;SDS011;8934;51.194;17.150;2023-06-04T13:28:48;1.95;;;0.90;;
17631;SDS011;8934;51.194;17.150;2023-06-04T13:31:37;3.10;;;1.38;;
17631;SDS011;8934;51.194;17.150;2023-06-04T13:34:26;2.97;;;1.20;;
17631;SDS011;8934;51.194;17.150;2023-06-04T13:37:14;3.00;;;1.10;;
17631;SDS011;8934;51.194;17.150;2023-06-04T13:40:01;2.10;;;0.98;;
17631;SDS011;8934;51.194;17.150;2023-06-04T13:42:50;2.45;;;0.98;;
17631;SDS011;8934;51.194;17.150;2023-06-04T13:45:37;2.78;;;0.85;;
17631;SDS011;8934;51.194;17.150;2023-06-04T13:48:28;2.65;;;0.98;;
17631;SDS011;8934;51.194;17.150;2023-06-04T13:51:15;2.95;;;1.27;;
17631;SDS011;8934;51.194;17.150;2023-06-04T13:54:03;2.92;;;1.20;;
17631;SDS011;8934;51.194;17.150;2023-06-04T13:56:51;2.65;;;1.17;;
17631;SDS011;8934;51.194;17.150;2023-06-04T13:59:39;2.75;;;1.10;;
17631;SDS011;8934;51.194;17.150;2023-06-04T14:02:27;2.08;;;0.93;;
17631;SDS011;8934;51.194;17.150;2023-06-04T14:05:15;2.20;;;1.13;;
17631;SDS011;8934;51.194;17.150;2023-06-04T14:08:03;1.60;;;0.95;;
17631;SDS011;8934;51.194;17.150;2023-06-04T14:10:51;1.70;;;1.15;;
17631;SDS011;8934;51.194;17.150;2023-06-04T14:13:40;1.02;;;0.90;;
17631;SDS011;8934;51.194;17.150;2023-06-04T14:16:31;1.73;;;0.93;;
17631;SDS011;8934;51.194;17.150;2023-06-04T14:19:19;2.35;;;1.17;;
17631;SDS011;8934;51.194;17.150;2023-06-04T14:22:09;1.45;;;1.00;;
17631;SDS011;8934;51.194;17.150;2023-06-04T14:24:58;2.38;;;1.10;;
17631;SDS011;8934;51.194;17.150;2023-06-04T14:27:46;2.70;;;1.17;;
17631;SDS011;8934;51.194;17.150;2023-06-04T14:30:34;3.17;;;1.00;;
17631;SDS011;8934;51.194;17.150;2023-06-04T14:33:21;1.70;;;0.88;;
17631;SDS011;8934;51.194;17.150;2023-06-04T14:36:09;2.80;;;0.90;;
17631;SDS011;8934;51.194;17.150;2023-06-04T14:38:58;1.10;;;1.00;;
17631;SDS011;8934;51.194;17.150;2023-06-04T14:41:45;1.33;;;0.80;;
17631;SDS011;8934;51.194;17.150;2023-06-04T14:44:33;1.75;;;0.98;;
17631;SDS011;8934;51.194;17.150;2023-06-04T14:47:21;1.42;;;0.95;;
17631;SDS011;8934;51.194;17.150;2023-06-04T14:50:09;2.88;;;0.95;;
17631;SDS011;8934;51.194;17.150;2023-06-04T14:52:57;2.38;;;1.08;;
17631;SDS011;8934;51.194;17.150;2023-06-04T14:55:46;0.80;;;0.70;;
17631;SDS011;8934;51.194;17.150;2023-06-04T14:58:33;0.80;;;0.68;;
17631;SDS011;8934;51.194;17.150;2023-06-04T15:01:21;1.20;;;0.90;;
17631;SDS011;8934;51.194;17.150;2023-06-04T15:04:10;1.60;;;0.77;;
17631;SDS011;8934;51.194;17.150;2023-06-04T15:06:57;3.10;;;1.00;;
17631;SDS011;8934;51.194;17.150;2023-06-04T15:09:45;1.90;;;0.98;;
17631;SDS011;8934;51.194;17.150;2023-06-04T15:12:34;1.85;;;1.02;;
17631;SDS011;8934;51.194;17.150;2023-06-04T15:15:25;1.70;;;0.85;;
17631;SDS011;8934;51.194;17.150;2023-06-04T15:18:13;5.05;;;1.10;;
17631;SDS011;8934;51.194;17.150;2023-06-04T15:21:00;2.67;;;1.65;;
17631;SDS011;8934;51.194;17.150;2023-06-04T15:23:48;2.03;;;1.17;;
17631;SDS011;8934;51.194;17.150;2023-06-04T15:26:35;2.15;;;0.93;;
17631;SDS011;8934;51.194;17.150;2023-06-04T15:29:24;2.67;;;1.10;;
17631;SDS011;8934;51.194;17.150;2023-06-04T15:32:12;3.05;;;1.30;;
17631;SDS011;8934;51.194;17.150;2023-06-04T15:35:00;1.60;;;1.20;;
17631;SDS011;8934;51.194;17.150;2023-06-04T15:37:48;3.70;;;1.58;;
17631;SDS011;8934;51.194;17.150;2023-06-04T15:40:36;1.92;;;1.20;;
17631;SDS011;8934;51.194;17.150;2023-06-04T15:43:23;2.65;;;1.20;;
17631;SDS011;8934;51.194;17.150;2023-06-04T15:46:12;4.75;;;2.08;;
17631;SDS011;8934;51.194;17.150;2023-06-04T15:49:01;3.05;;;1.52;;
17631;SDS011;8934;51.194;17.150;2023-06-04T15:51:52;1.20;;;1.10;;
17631;SDS011;8934;51.194;17.150;2023-06-04T15:54:40;3.10;;;1.30;;
17631;SDS011;8934;51.194;17.150;2023-06-04T15:57:32;2.25;;;1.13;;
17631;SDS011;8934;51.194;17.150;2023-06-04T16:00:19;1.55;;;1.27;;
17631;SDS011;8934;51.194;17.150;2023-06-04T16:03:08;2.05;;;1.70;;
17631;SDS011;8934;51.194;17.150;2023-06-04T16:05:56;2.10;;;1.25;;
17631;SDS011;8934;51.194;17.150;2023-06-04T16:08:43;3.00;;;1.33;;
17631;SDS011;8934;51.194;17.150;2023-06-04T16:11:31;2.42;;;1.30;;
17631;SDS011;8934;51.194;17.150;2023-06-04T16:14:21;2.38;;;0.85;;
17631;SDS011;8934;51.194;17.150;2023-06-04T16:17:08;2.28;;;1.10;;
17631;SDS011;8934;51.194;17.150;2023-06-04T16:19:57;1.30;;;0.90;;
17631;SDS011;8934;51.194;17.150;2023-06-04T16:22:48;6.15;;;1.55;;
17631;SDS011;8934;51.194;17.150;2023-06-04T16:25:36;1.45;;;1.13;;
17631;SDS011;8934;51.194;17.150;2023-06-04T16:28:24;3.45;;;1.85;;
17631;SDS011;8934;51.194;17.150;2023-06-04T16:31:11;1.85;;;1.30;;
17631;SDS011;8934;51.194;17.150;2023-06-04T16:33:59;2.25;;;1.13;;
17631;SDS011;8934;51.194;17.150;2023-06-04T16:36:48;1.83;;;1.13;;
17631;SDS011;8934;51.194;17.150;2023-06-04T16:39:36;2.72;;;0.93;;
17631;SDS011;8934;51.194;17.150;2023-06-04T16:42:24;3.92;;;0.82;;
17631;SDS011;8934;51.194;17.150;2023-06-04T16:45:11;1.52;;;1.00;;
17631;SDS011;8934;51.194;17.150;2023-06-04T16:47:59;1.60;;;1.15;;
17631;SDS011;8934;51.194;17.150;2023-06-04T16:50:47;2.25;;;1.20;;
17631;SDS011;8934;51.194;17.150;2023-06-04T16:53:36;1.85;;;1.40;;
17631;SDS011;8934;51.194;17.150;2023-06-04T16:56:24;3.63;;;1.30;;
17631;SDS011;8934;51.194;17.150;2023-06-04T16:59:12;1.42;;;1.10;;
17631;SDS011;8934;51.194;17.150;2023-06-04T17:01:59;1.83;;;0.98;;